Time;durP1;ratioP1;P1;durP2;ratioP2;P2;SDS_P1;SDS_P2;PMS_P1;PMS_P2;Temp;Humidity;BMP_temperature;BMP_pressure;BME280_temperature;BME280_humidity;BME280_pressure;Samples;Min_cycle;Max_cycle;Signal;HPM_P1;HPM_P2
2023/06/16 00:00:36;;;;;;;6.20;5.67;;;;;;;-145.94;37.41;76296.69;5117011;28;20250;-67
2023/06/16 00:03:02;;;;;;;5.37;5.27;;;;;;;-145.94;37.48;76296.69;5116964;28;20186;-67
2023/06/16 00:05:29;;;;;;;5.50;5.40;;;;;;;-145.94;36.94;76296.69;5116827;28;20553;-67
2023/06/16 00:07:59;;;;;;;5.63;5.17;;;;;;;-145.94;37.07;76298.72;5117117;28;20348;-66
2023/06/16 00:10:25;;;;;;;8.63;5.70;;;;;;;-145.94;36.82;76296.69;5116652;28;20262;-67
2023/06/16 00:12:52;;;;;;;5.50;5.47;;;;;;;-145.94;36.66;76294.66;5116968;28;20680;-67
2023/06/16 00:15:20;;;;;;;5.53;5.07;;;;;;;-145.94;36.90;76296.69;5116646;28;20624;-67
2023/06/16 00:17:49;;;;;;;5.53;5.47;;;;;;;-145.94;36.74;76302.81;5116665;28;20674;-67
2023/06/16 00:20:21;;;;;;;6.53;6.00;;;;;;;-145.94;36.80;76302.81;5116359;28;20295;-67
2023/06/16 00:22:47;;;;;;;6.17;5.97;;;;;;;-145.94;36.98;76306.88;5116372;28;20173;-67
2023/06/16 00:25:16;;;;;;;5.30;5.17;;;;;;;-145.94;37.07;76308.94;5116495;28;20242;-67
2023/06/16 00:27:42;;;;;;;5.60;5.27;;;;;;;-145.94;37.10;76315.03;5116447;28;20204;-67
2023/06/16 00:30:09;;;;;;;6.37;5.80;;;;;;;-145.94;36.94;76319.13;5116506;28;20266;-67
2023/06/16 00:32:36;;;;;;;6.67;5.80;;;;;;;-145.94;37.00;76325.25;5116089;28;20576;-67
2023/06/16 00:35:03;;;;;;;6.03;5.90;;;;;;;-145.94;36.94;76325.25;5116188;28;20185;-67
2023/06/16 00:37:29;;;;;;;6.47;6.17;;;;;;;-145.94;37.17;76331.34;5098028;28;20238;-67
2023/06/16 00:39:55;;;;;;;5.90;5.80;;;;;;;-145.94;37.39;76345.63;5115910;28;20254;-67
2023/06/16 00:42:22;;;;;;;5.27;5.17;;;;;;;-145.94;37.46;76347.66;5115998;28;20177;-67
2023/06/16 00:44:49;;;;;;;5.83;5.77;;;;;;;-145.94;37.36;76353.78;5116089;28;20193;-67
2023/06/16 00:47:15;;;;;;;5.23;5.13;;;;;;;-145.94;37.59;76353.78;5116141;28;20238;-67
2023/06/16 00:49:43;;;;;;;6.30;5.87;;;;;;;-145.94;37.57;76351.75;5114978;28;20713;-67
2023/06/16 00:52:13;;;;;;;4.80;4.80;;;;;;;-145.94;37.80;76361.94;5116374;28;20732;-67
2023/06/16 00:54:40;;;;;;;5.90;5.63;;;;;;;-145.94;38.28;76372.13;5116801;28;20173;-67
2023/06/16 00:57:06;;;;;;;5.47;5.13;;;;;;;-145.94;38.27;76378.25;5097447;28;20193;-67
2023/06/16 00:59:33;;;;;;;5.67;5.67;;;;;;;-145.94;38.49;76388.44;5115840;28;20205;-67
2023/06/16 01:01:59;;;;;;;6.57;5.77;;;;;;;-145.94;37.80;76384.38;5116321;28;20181;-67
2023/06/16 01:04:28;;;;;;;5.97;5.57;;;;;;;-145.94;37.79;76386.41;5115792;28;20197;-67
2023/06/16 01:07:20;;;;;;;5.77;5.70;;;;;;;-145.94;38.00;76392.53;5116022;28;20549;-67
2023/06/16 01:10:08;;;;;;;5.63;5.37;;;;;;;-145.94;38.11;76392.53;5104775;28;20229;-67
2023/06/16 01:12:46;;;;;;;5.80;5.70;;;;;;;-145.94;37.86;76392.53;5116142;28;20697;-67
2023/06/16 01:15:19;;;;;;;5.80;5.77;;;;;;;-145.94;38.16;76402.72;5097358;28;20192;-67
2023/06/16 01:17:46;;;;;;;5.60;5.50;;;;;;;-145.94;38.24;76404.75;5116043;28;20624;-67
2023/06/16 01:20:49;;;;;;;5.23;5.23;;;;;;;-145.94;38.28;76412.91;5115304;28;20204;-67
2023/06/16 01:23:46;;;;;;;8.07;6.33;;;;;;;-145.94;38.29;76414.94;5115666;28;20511;-67
2023/06/16 01:26:14;;;;;;;5.27;5.27;;;;;;;-145.94;38.07;76412.91;5098779;28;20538;-67
2023/06/16 01:28:42;;;;;;;6.53;5.13;;;;;;;-145.94;38.40;76417.00;5097527;28;20193;-67
2023/06/16 01:31:15;;;;;;;5.37;5.37;;;;;;;-145.94;38.55;76423.13;5096925;28;20244;-67
2023/06/16 01:33:44;;;;;;;5.20;5.20;;;;;;;-145.94;38.42;76427.19;5115288;28;20170;-67
2023/06/16 01:36:11;;;;;;;5.90;5.40;;;;;;;-145.94;38.54;76431.28;5115444;28;20185;-67
2023/06/16 01:38:38;;;;;;;5.90;5.40;;;;;;;-145.94;38.58;76439.41;5115563;28;20235;-68
2023/06/16 01:41:06;;;;;;;5.93;5.83;;;;;;;-145.94;38.69;76437.38;5115090;28;20181;-67
2023/06/16 01:43:33;;;;;;;5.43;5.33;;;;;;;-145.94;38.86;76437.38;5115330;28;20177;-67
2023/06/16 01:46:00;;;;;;;5.60;5.40;;;;;;;-145.94;38.95;76439.41;5115234;28;20643;-67
2023/06/16 01:48:27;;;;;;;5.60;5.30;;;;;;;-145.94;38.96;76443.50;5114969;28;20177;-67
2023/06/16 01:50:54;;;;;;;6.33;6.13;;;;;;;-145.94;39.47;76439.41;5096541;28;20213;-68
2023/06/16 01:53:21;;;;;;;5.67;5.40;;;;;;;-145.94;40.17;76447.56;5114804;28;20189;-68
2023/06/16 01:55:50;;;;;;;5.33;5.23;;;;;;;-145.94;40.39;76445.53;5114749;28;20659;-68
2023/06/16 01:58:19;;;;;;;6.03;5.83;;;;;;;-145.94;40.51;76453.69;5096460;28;20189;-68
2023/06/16 02:00:55;;;;;;;6.60;6.27;;;;;;;-145.94;40.89;76461.84;5115428;28;20209;-67
2023/06/16 02:03:28;;;;;;;6.47;5.90;;;;;;;-145.94;40.88;76465.94;5114667;28;20169;-67
2023/06/16 02:05:58;;;;;;;5.30;5.30;;;;;;;-145.94;40.76;76470.00;5115167;28;20169;-67
2023/06/16 02:08:26;;;;;;;5.80;5.70;;;;;;;-145.94;40.82;76480.19;5097416;28;20547;-67
2023/06/16 02:10:54;;;;;;;6.07;5.93;;;;;;;-145.94;40.70;76484.28;5096196;28;20741;-67
2023/06/16 02:13:20;;;;;;;5.30;5.30;;;;;;;-145.94;40.67;76494.47;5096193;28;20582;-67
2023/06/16 02:15:47;;;;;;;5.50;5.50;;;;;;;-145.94;41.33;76508.75;5096137;28;20193;-67
2023/06/16 02:18:24;;;;;;;6.50;6.40;;;;;;;-145.94;41.22;76518.94;5096413;28;20236;-67
2023/06/16 02:20:50;;;;;;;6.70;5.90;;;;;;;-145.94;41.22;76531.19;5114862;28;20233;-67
2023/06/16 02:23:17;;;;;;;6.33;6.13;;;;;;;-145.94;41.74;76539.34;5114831;28;20189;-67
2023/06/16 02:25:43;;;;;;;6.27;6.17;;;;;;;-145.94;42.19;76557.69;5114554;28;20181;-67
2023/06/16 02:28:09;;;;;;;6.43;6.30;;;;;;;-145.94;42.32;76571.97;5114195;28;20590;-67
2023/06/16 02:30:36;;;;;;;5.13;5.13;;;;;;;-145.94;43.46;76588.28;5113939;28;20217;-67
2023/06/16 02:33:04;;;;;;;6.57;6.33;;;;;;;-145.94;44.26;76620.91;5114325;28;20254;-67
2023/06/16 02:35:30;;;;;;;6.53;6.33;;;;;;;-145.94;44.82;76618.84;5114631;28;20185;-67
2023/06/16 02:37:57;;;;;;;6.30;6.20;;;;;;;-145.94;44.74;76618.84;5114018;28;20182;-67
2023/06/16 02:40:24;;;;;;;6.63;6.43;;;;;;;-145.94;44.16;76620.91;5095929;28;20212;-67
2023/06/16 02:42:50;;;;;;;6.40;6.30;;;;;;;-145.94;44.20;76620.91;5095766;28;20686;-67
2023/06/16 02:45:17;;;;;;;6.60;6.27;;;;;;;-145.94;44.58;76631.09;5113928;28;20181;-67
2023/06/16 02:47:44;;;;;;;7.27;7.00;;;;;;;-145.94;44.43;76643.31;5095610;28;20193;-67
2023/06/16 02:50:11;;;;;;;7.93;7.10;;;;;;;-145.94;44.64;76651.47;5113729;28;20207;-67
2023/06/16 02:52:41;;;;;;;6.30;6.30;;;;;;;-145.94;44.48;76651.47;5095459;28;20707;-67
2023/06/16 02:55:09;;;;;;;7.17;6.93;;;;;;;-145.94;44.35;76647.41;5095637;28;20226;-67
2023/06/16 02:57:42;;;;;;;6.23;6.13;;;;;;;-145.94;43.96;76639.25;5114369;28;20166;-67
2023/06/16 03:00:11;;;;;;;6.87;6.40;;;;;;;-145.94;44.41;76645.38;5114204;28;20216;-67
2023/06/16 03:02:57;;;;;;;6.67;6.50;;;;;;;-145.94;44.40;76647.41;5113620;28;20566;-67
2023/06/16 03:05:27;;;;;;;6.20;5.90;;;;;;;-145.94;44.52;76653.53;5095437;28;20189;-67
2023/06/16 03:07:54;;;;;;;6.73;6.53;;;;;;;-145.94;44.69;76651.47;5095288;28;20189;-67
2023/06/16 03:10:22;;;;;;;7.00;6.67;;;;;;;-145.94;44.67;76647.41;5095668;28;20258;-67
2023/06/16 03:13:01;;;;;;;7.03;6.83;;;;;;;-145.94;44.78;76651.47;5098503;28;20285;-67
2023/06/16 03:15:27;;;;;;;7.50;6.90;;;;;;;-145.94;45.01;76655.56;5099880;28;20554;-67
2023/06/16 03:17:54;;;;;;;6.97;6.77;;;;;;;-145.94;45.09;76663.72;5099849;28;20219;-67
2023/06/16 03:20:21;;;;;;;7.13;6.97;;;;;;;-145.94;44.83;76667.78;5099688;28;20584;-67
2023/06/16 03:23:02;;;;;;;6.33;6.23;;;;;;;-145.94;44.95;76673.91;5100440;28;20188;-67
2023/06/16 03:25:35;;;;;;;6.43;6.33;;;;;;;-145.94;45.09;76678.00;5099668;28;20660;-67
2023/06/16 03:28:01;;;;;;;6.70;6.60;;;;;;;-145.94;45.12;76684.09;5118298;28;20616;-67
2023/06/16 03:30:29;;;;;;;7.13;7.03;;;;;;;-145.94;45.67;76684.09;5117636;28;20221;-67
2023/06/16 03:33:02;;;;;;;8.53;6.40;;;;;;;-145.94;45.45;76686.16;5099510;28;20683;-67
2023/06/16 03:35:31;;;;;;;7.17;6.77;;;;;;;-145.94;45.39;76686.16;5099317;28;20189;-67
2023/06/16 03:38:00;;;;;;;8.53;7.70;;;;;;;-145.94;45.81;76688.19;5099811;28;20189;-67
2023/06/16 03:40:28;;;;;;;6.87;6.77;;;;;;;-145.94;46.06;76686.16;5099108;28;20215;-67
2023/06/16 03:42:55;;;;;;;6.93;6.67;;;;;;;-145.94;46.24;76688.19;5117391;28;20569;-67
2023/06/16 03:45:21;;;;;;;7.20;6.73;;;;;;;-145.94;46.14;76690.22;5099248;28;20190;-67
2023/06/16 03:47:48;;;;;;;6.40;6.20;;;;;;;-145.94;46.34;76698.38;5099546;28;20276;-67
2023/06/16 03:50:14;;;;;;;7.37;6.87;;;;;;;-145.94;46.43;76702.47;5117458;28;20632;-67
2023/06/16 03:52:42;;;;;;;7.70;7.50;;;;;;;-145.94;46.65;76706.53;5098839;28;20209;-67
2023/06/16 03:55:09;;;;;;;8.27;7.50;;;;;;;-145.94;46.80;76710.63;5117374;28;20234;-67
2023/06/16 03:57:37;;;;;;;14.27;7.37;;;;;;;-145.94;46.91;76710.63;5099438;28;20209;-67
2023/06/16 04:00:08;;;;;;;7.70;7.17;;;;;;;-145.94;47.57;76712.66;5098988;28;20576;-67
2023/06/16 04:02:40;;;;;;;7.53;7.17;;;;;;;-145.94;47.50;76710.63;5116973;28;20175;-67
2023/06/16 04:05:11;;;;;;;7.17;7.00;;;;;;;-145.94;47.32;76720.81;5099543;28;20177;-67
2023/06/16 04:07:38;;;;;;;7.37;7.07;;;;;;;-145.94;47.26;76720.81;5098594;28;20663;-67
2023/06/16 04:10:05;;;;;;;7.57;7.43;;;;;;;-145.94;47.81;76726.94;5099025;28;20624;-67
2023/06/16 04:12:32;;;;;;;6.87;6.63;;;;;;;-145.94;48.08;76722.84;5098469;28;20270;-67
2023/06/16 04:15:03;;;;;;;6.63;6.23;;;;;;;-145.94;48.24;76712.66;5098392;28;20193;-67
2023/06/16 04:17:30;;;;;;;9.30;7.67;;;;;;;-145.94;47.95;76694.31;5116674;28;20324;-67
2023/06/16 04:19:57;;;;;;;7.77;7.17;;;;;;;-145.94;47.71;76694.31;5098291;28;20616;-67
2023/06/16 04:22:24;;;;;;;10.40;7.87;;;;;;;-145.94;47.88;76678.00;5098351;28;20600;-67
2023/06/16 04:24:53;;;;;;;12.67;7.17;;;;;;;-145.94;48.02;76680.03;5098223;28;20571;-67
2023/06/16 04:27:23;;;;;;;7.60;7.07;;;;;;;-145.94;48.23;76667.78;5098270;28;20212;-66
2023/06/16 04:29:51;;;;;;;7.00;6.90;;;;;;;-145.94;47.68;76657.59;5098084;28;20228;-67
2023/06/16 04:32:17;;;;;;;7.47;7.00;;;;;;;-145.94;47.48;76643.31;5098143;28;20212;-67
2023/06/16 04:34:49;;;;;;;9.83;6.63;;;;;;;-145.94;46.30;76620.91;5098346;28;20279;-67
2023/06/16 04:37:17;;;;;;;7.97;7.37;;;;;;;-145.94;46.70;76610.69;5098113;28;20193;-67
2023/06/16 04:39:43;;;;;;;8.47;7.07;;;;;;;-145.94;46.52;76604.59;5098091;28;20220;-67
2023/06/16 04:42:15;;;;;;;7.53;7.10;;;;;;;-145.94;46.52;76588.28;5098501;28;20192;-67
2023/06/16 04:44:43;;;;;;;14.07;8.33;;;;;;;-145.94;46.85;76580.13;5097908;28;20287;-67
2023/06/16 04:47:12;;;;;;;8.10;7.80;;;;;;;-145.94;46.21;76571.97;5097807;28;20197;-67
2023/06/16 04:49:39;;;;;;;7.33;6.70;;;;;;;-145.94;45.02;76563.81;5098657;28;20270;-67
2023/06/16 04:52:09;;;;;;;10.33;6.50;;;;;;;-145.94;45.94;76561.75;5115981;28;20678;-67
2023/06/16 04:54:36;;;;;;;7.33;6.77;;;;;;;-145.94;46.35;76559.72;5097793;28;20642;-67
2023/06/16 04:57:06;;;;;;;7.33;6.73;;;;;;;-145.94;46.19;76547.50;5097758;28;20193;-67
2023/06/16 04:59:33;;;;;;;7.63;7.33;;;;;;;-145.94;46.09;76543.41;5097742;28;20205;-67
2023/06/16 05:02:00;;;;;;;8.50;8.03;;;;;;;-145.94;45.12;76518.94;5097630;28;20212;-67
2023/06/16 05:04:27;;;;;;;8.67;7.33;;;;;;;-145.94;45.39;76516.91;5098321;28;20600;-67
2023/06/16 05:06:53;;;;;;;7.47;7.17;;;;;;;-145.94;45.61;76520.97;5097540;28;20607;-67
2023/06/16 05:09:21;;;;;;;6.83;6.67;;;;;;;-145.94;45.78;76523.03;5097594;28;20209;-67
2023/06/16 05:11:48;;;;;;;7.30;6.77;;;;;;;-145.94;45.86;76516.91;5097389;28;20201;-67
2023/06/16 05:14:15;;;;;;;6.77;6.67;;;;;;;-145.94;46.77;76512.81;5097373;28;20666;-67
2023/06/16 05:16:41;;;;;;;7.50;7.03;;;;;;;-145.94;46.59;76502.63;5097797;28;20197;-67
2023/06/16 05:19:09;;;;;;;9.33;7.13;;;;;;;-145.94;46.63;76498.56;5097162;28;20220;-67
2023/06/16 05:21:42;;;;;;;8.20;7.50;;;;;;;-145.94;46.87;76486.31;5097497;28;20189;-67
2023/06/16 05:24:09;;;;;;;7.87;7.17;;;;;;;-145.94;46.86;76488.34;5097243;28;20611;-67
2023/06/16 05:26:36;;;;;;;7.77;7.47;;;;;;;-145.94;45.52;76482.25;5097564;28;20549;-67
2023/06/16 05:29:04;;;;;;;8.83;7.50;;;;;;;-145.94;44.25;76478.16;5115144;28;20588;-66
2023/06/16 05:31:31;;;;;;;7.87;7.23;;;;;;;-145.94;44.03;76472.03;5097280;28;20213;-66
2023/06/16 05:33:57;;;;;;;6.60;6.40;;;;;;;-145.94;44.18;76455.72;5096940;28;20208;-66
2023/06/16 05:36:24;;;;;;;6.87;6.57;;;;;;;-145.94;43.89;76437.38;5115136;28;20189;-66
2023/06/16 05:38:51;;;;;;;7.83;7.40;;;;;;;-145.94;42.85;76429.22;5096682;28;20200;-66
2023/06/16 05:41:23;;;;;;;7.90;7.27;;;;;;;-145.94;42.37;76408.84;5097647;28;20189;-66
2023/06/16 05:43:51;;;;;;;6.73;6.53;;;;;;;-145.94;42.03;76392.53;5096697;28;20217;-66
2023/06/16 05:46:17;;;;;;;6.40;6.30;;;;;;;-145.94;42.08;76386.41;5096994;28;20192;-66
2023/06/16 05:48:44;;;;;;;7.17;7.00;;;;;;;-145.94;42.42;76380.28;5096414;28;20189;-67
2023/06/16 05:51:12;;;;;;;6.47;6.37;;;;;;;-145.94;41.69;76370.09;5097081;28;20238;-66
2023/06/16 05:53:39;;;;;;;6.77;6.47;;;;;;;-145.94;40.42;76368.06;5096762;28;20209;-66
2023/06/16 05:56:05;;;;;;;6.60;6.50;;;;;;;-145.94;40.38;76347.66;5096573;28;20747;-66
2023/06/16 05:58:35;;;;;;;7.27;6.87;;;;;;;-145.94;40.69;76341.56;5096734;28;20193;-66
2023/06/16 06:01:03;;;;;;;7.23;6.87;;;;;;;-145.94;40.30;76325.25;5096440;28;20691;-66
2023/06/16 06:03:30;;;;;;;6.70;6.50;;;;;;;-145.94;40.56;76319.13;5096529;28;20724;-66
2023/06/16 06:05:57;;;;;;;6.50;6.30;;;;;;;-145.94;39.95;76296.69;5096299;28;20540;-66
2023/06/16 06:08:27;;;;;;;6.60;6.50;;;;;;;-145.94;40.03;76286.50;5096791;28;20193;-66
2023/06/16 06:10:55;;;;;;;6.83;6.57;;;;;;;-145.94;39.34;76270.19;5096455;28;20212;-66
2023/06/16 06:13:24;;;;;;;6.90;6.80;;;;;;;-145.94;38.21;76257.97;5097180;28;20606;-66
2023/06/16 06:15:52;;;;;;;6.67;6.57;;;;;;;-145.94;37.63;76249.81;5097187;28;20193;-66
2023/06/16 06:18:18;;;;;;;6.57;5.93;;;;;;;-145.94;38.00;76235.53;5096210;28;20228;-66
2023/06/16 06:20:46;;;;;;;6.40;6.30;;;;;;;-145.94;37.98;76211.06;5096054;28;20687;-66
2023/06/16 06:23:12;;;;;;;6.23;5.93;;;;;;;-145.94;37.39;76202.91;5095973;28;20213;-66
2023/06/16 06:25:40;;;;;;;6.23;6.03;;;;;;;-145.94;37.52;76184.56;5095965;28;20192;-66
2023/06/16 06:28:08;;;;;;;6.83;6.63;;;;;;;-145.94;37.28;76164.16;5095984;28;20200;-66
2023/06/16 06:30:36;;;;;;;6.70;6.27;;;;;;;-145.94;36.49;76151.94;5095988;28;20217;-66
2023/06/16 06:33:04;;;;;;;5.63;5.53;;;;;;;-145.94;36.82;76141.75;5096021;28;20259;-66
2023/06/16 06:35:30;;;;;;;5.93;5.83;;;;;;;-145.94;36.22;76125.44;5095867;28;20228;-66
2023/06/16 06:37:58;;;;;;;6.03;5.83;;;;;;;-145.94;36.20;76113.19;5096667;28;20185;-66
2023/06/16 06:40:25;;;;;;;6.10;5.67;;;;;;;-145.94;36.42;76100.97;5079259;28;20236;-66
2023/06/16 06:42:53;;;;;;;6.53;6.43;;;;;;;-145.94;36.26;76094.84;5095774;28;20192;-66
2023/06/16 06:45:36;;;;;;;6.47;6.17;;;;;;;-145.94;35.69;76084.66;5096520;28;20196;-66
2023/06/16 06:48:03;;;;;;;7.40;6.27;;;;;;;-145.94;35.29;76086.69;5113345;28;20574;-67
2023/06/16 06:50:30;;;;;;;6.20;5.80;;;;;;;-145.94;35.80;76078.53;5096117;28;20706;-66
2023/06/16 06:52:57;;;;;;;5.10;5.10;;;;;;;-145.94;35.59;76068.34;5095508;28;20212;-66
2023/06/16 06:55:23;;;;;;;6.00;5.80;;;;;;;-145.94;35.15;76062.22;5113827;28;20174;-66
2023/06/16 06:57:50;;;;;;;6.30;5.80;;;;;;;-145.94;34.19;76070.38;5114035;28;20253;-66
2023/06/16 07:00:17;;;;;;;6.03;5.73;;;;;;;-145.94;33.59;76050.00;5113943;28;20205;-67
2023/06/16 07:02:44;;;;;;;5.47;5.27;;;;;;;-145.94;34.10;76050.00;5113762;28;20716;-66
2023/06/16 07:05:11;;;;;;;5.93;5.33;;;;;;;-145.94;33.44;76041.84;5113705;28;20189;-66
2023/06/16 07:07:37;;;;;;;6.67;6.10;;;;;;;-145.94;32.86;76027.56;5113730;28;20203;-66
2023/06/16 07:10:05;;;;;;;6.90;5.33;;;;;;;-145.94;32.63;76017.38;5113607;28;20266;-67
2023/06/16 07:12:31;;;;;;;6.37;6.17;;;;;;;-145.94;32.93;76021.44;5114146;28;20242;-68
2023/06/16 07:14:58;;;;;;;6.40;5.93;;;;;;;-145.94;32.74;76015.34;5113817;28;20252;-69
2023/06/16 07:17:25;;;;;;;5.60;5.40;;;;;;;-145.94;33.06;76027.56;5113708;28;20182;-69
2023/06/16 07:19:51;;;;;;;6.30;5.70;;;;;;;-145.94;33.20;76033.69;5113996;28;20279;-69
2023/06/16 07:22:19;;;;;;;5.97;5.90;;;;;;;-145.94;32.77;76019.41;5113527;28;20218;-69
2023/06/16 07:24:46;;;;;;;6.23;5.90;;;;;;;-145.94;32.56;76011.25;5113533;28;20719;-69
2023/06/16 07:27:12;;;;;;;5.77;5.47;;;;;;;-145.94;32.71;76003.09;5113920;28;20550;-69
2023/06/16 07:29:39;;;;;;;6.10;6.00;;;;;;;-145.94;33.61;75997.00;5113636;28;20221;-69
2023/06/16 07:32:06;;;;;;;5.30;5.20;;;;;;;-145.94;33.47;76013.28;5113706;28;20593;-69
2023/06/16 07:34:33;;;;;;;6.07;5.77;;;;;;;-145.94;32.94;76011.25;5113366;28;20602;-69
2023/06/16 07:37:03;;;;;;;5.33;5.23;;;;;;;-145.94;32.73;76007.19;5113398;28;20261;-69
2023/06/16 07:39:31;;;;;;;5.83;5.30;;;;;;;-145.94;31.49;75994.94;5095377;28;20220;-69
2023/06/16 07:41:58;;;;;;;5.83;5.53;;;;;;;-145.94;30.31;75992.91;5113352;28;20185;-69
2023/06/16 07:44:25;;;;;;;5.67;5.37;;;;;;;-145.94;30.64;75992.91;5113338;28;20181;-69
2023/06/16 07:46:51;;;;;;;5.20;5.10;;;;;;;-145.94;30.32;75988.84;5113251;28;20169;-69
2023/06/16 07:49:17;;;;;;;4.83;4.77;;;;;;;-145.94;30.83;75978.63;5113162;28;20238;-69
2023/06/16 07:51:45;;;;;;;5.33;5.13;;;;;;;-145.94;31.03;75978.63;5113719;28;20681;-69
2023/06/16 07:54:11;;;;;;;5.70;5.40;;;;;;;-145.94;30.62;75976.59;5113749;28;20675;-69
2023/06/16 07:56:38;;;;;;;4.80;4.50;;;;;;;-145.94;29.95;75966.41;5113833;28;20583;-69
2023/06/16 07:59:06;;;;;;;5.20;5.20;;;;;;;-145.94;28.94;75960.28;5115537;28;20201;-69
2023/06/16 08:01:32;;;;;;;5.00;4.90;;;;;;;-145.94;28.42;75954.19;5117407;28;20212;-70
2023/06/16 08:03:59;;;;;;;4.90;4.60;;;;;;;-145.94;28.79;75952.13;5117265;28;20545;-69
2023/06/16 08:06:27;;;;;;;4.83;4.73;;;;;;;-145.94;28.20;75960.28;5117182;28;20177;-69
2023/06/16 08:08:53;;;;;;;4.80;4.70;;;;;;;-145.94;28.79;75931.75;5117093;28;20169;-69
2023/06/16 08:11:19;;;;;;;4.93;4.83;;;;;;;-145.94;27.84;75927.66;5117544;28;20673;-70
2023/06/16 08:13:46;;;;;;;5.03;4.77;;;;;;;-145.94;28.42;75925.63;5117032;28;20258;-70
2023/06/16 08:16:12;;;;;;;4.63;4.53;;;;;;;-145.94;28.90;75929.72;5117066;28;20182;-68
2023/06/16 08:18:39;;;;;;;5.17;4.87;;;;;;;-145.94;28.47;75917.47;5116549;28;20181;-69
2023/06/16 08:21:06;;;;;;;4.90;4.80;;;;;;;-145.94;28.49;75905.25;5116547;28;20230;-69
2023/06/16 08:23:34;;;;;;;4.57;4.57;;;;;;;-145.94;28.91;75893.00;5116688;28;20282;-69
2023/06/16 08:26:01;;;;;;;4.43;4.43;;;;;;;-145.94;28.94;75876.69;5116567;28;20538;-69
2023/06/16 08:28:27;;;;;;;5.10;5.00;;;;;;;-145.94;28.35;75860.41;5116470;28;20200;-69
2023/06/16 08:30:54;;;;;;;5.60;5.03;;;;;;;-145.94;28.56;75852.25;5116248;28;20209;-69
2023/06/16 08:33:20;;;;;;;5.10;4.60;;;;;;;-145.94;29.28;75833.88;5116491;28;20201;-69
2023/06/16 08:35:47;;;;;;;4.67;4.67;;;;;;;-145.94;29.03;75817.59;5116609;28;20223;-69
2023/06/16 08:38:13;;;;;;;5.43;5.33;;;;;;;-145.94;29.16;75807.38;5116657;28;20234;-69
2023/06/16 08:40:40;;;;;;;5.50;5.20;;;;;;;-145.94;28.55;75811.47;5116159;28;20215;-69
2023/06/16 08:43:08;;;;;;;4.97;4.97;;;;;;;-145.94;28.67;75819.63;5116272;28;20238;-69
2023/06/16 08:45:35;;;;;;;5.00;4.90;;;;;;;-145.94;28.65;75801.28;5116557;28;20196;-69
2023/06/16 08:48:02;;;;;;;13.47;5.90;;;;;;;-145.94;28.85;75780.88;5116147;28;20309;-69
2023/06/16 08:50:29;;;;;;;5.00;5.00;;;;;;;-145.94;29.68;75784.97;5116113;28;20205;-69
2023/06/16 08:53:00;;;;;;;5.23;5.23;;;;;;;-145.94;29.11;75789.03;5115988;28;20193;-69
2023/06/16 08:55:29;;;;;;;5.00;4.80;;;;;;;-145.94;28.46;75784.97;5116069;28;20543;-69
2023/06/16 08:57:55;;;;;;;6.17;4.80;;;;;;;-145.94;28.27;75782.94;5116032;28;20185;-69
2023/06/16 09:00:24;;;;;;;4.80;4.60;;;;;;;-145.94;28.82;75758.47;5116731;28;20670;-69
2023/06/16 09:02:55;;;;;;;6.07;5.60;;;;;;;-145.94;28.46;75764.56;5115898;28;20350;-69
2023/06/16 09:05:25;;;;;;;17.40;5.73;;;;;;;-145.94;28.21;75754.38;5116180;28;20512;-69
2023/06/16 09:07:52;;;;;;;6.37;6.17;;;;;;;-145.94;28.45;75758.47;5116055;28;20662;-69
2023/06/16 09:10:19;;;;;;;4.67;4.67;;;;;;;-145.94;27.66;75752.34;5114775;28;20208;-69
2023/06/16 09:12:51;;;;;;;5.20;4.90;;;;;;;-145.94;28.65;75746.22;5115735;28;20189;-68
2023/06/16 09:15:19;;;;;;;4.90;4.70;;;;;;;-145.94;28.13;75731.97;5116244;28;20219;-69
2023/06/16 09:17:47;;;;;;;4.30;4.30;;;;;;;-145.94;28.41;75709.53;5115581;28;20234;-69
2023/06/16 09:20:15;;;;;;;8.90;5.13;;;;;;;-145.94;27.85;75717.69;5115740;28;20232;-69
2023/06/16 09:22:48;;;;;;;5.27;5.17;;;;;;;-145.94;28.15;75729.91;5115748;28;20528;-69
2023/06/16 09:25:15;;;;;;;5.27;5.17;;;;;;;-145.94;28.04;75731.97;5115748;28;20169;-69
2023/06/16 09:27:46;;;;;;;6.07;4.77;;;;;;;-145.94;27.79;75725.84;5115401;28;20618;-69
2023/06/16 09:30:15;;;;;;;6.10;5.03;;;;;;;-145.94;27.75;75705.47;5115196;28;20698;-69
2023/06/16 09:32:42;;;;;;;4.70;4.60;;;;;;;-145.94;27.92;75713.63;5115222;28;20193;-69
2023/06/16 09:35:19;;;;;;;5.13;5.03;;;;;;;-145.94;27.70;75717.69;5115085;28;20213;-69
2023/06/16 09:37:51;;;;;;;5.33;5.23;;;;;;;-145.94;27.54;75689.16;5115247;28;20204;-69
2023/06/16 09:40:20;;;;;;;5.47;5.37;;;;;;;-145.94;28.43;75689.16;5115403;28;20250;-69
2023/06/16 09:42:50;;;;;;;5.10;4.80;;;;;;;-145.94;27.64;75668.75;5115114;28;20595;-69
2023/06/16 09:45:19;;;;;;;5.83;5.50;;;;;;;-145.94;27.67;75652.44;5115304;28;20181;-69
2023/06/16 09:47:48;;;;;;;4.87;4.87;;;;;;;-145.94;28.04;75664.69;5115028;28;20189;-69
2023/06/16 09:50:16;;;;;;;5.70;5.63;;;;;;;-145.94;27.98;75664.69;5114864;28;20212;-69
2023/06/16 09:52:45;;;;;;;5.60;5.40;;;;;;;-145.94;27.72;75652.44;5115169;28;20612;-69
2023/06/16 09:55:12;;;;;;;5.30;5.10;;;;;;;-145.94;27.88;75636.16;5115304;28;20205;-69
2023/06/16 09:57:42;;;;;;;4.40;4.20;;;;;;;-145.94;27.86;75623.91;5114869;28;20189;-70
2023/06/16 10:00:16;;;;;;;5.77;5.23;;;;;;;-145.94;27.43;75613.72;5114881;28;20205;-70
2023/06/16 10:02:47;;;;;;;5.63;5.17;;;;;;;-145.94;27.70;75619.84;5115265;28;20177;-69
2023/06/16 10:05:17;;;;;;;4.97;4.87;;;;;;;-145.94;26.78;75611.69;5114924;28;20197;-70
2023/06/16 10:07:56;;;;;;;4.97;4.97;;;;;;;-145.94;26.79;75619.84;5114560;28;20193;-70
2023/06/16 10:10:29;;;;;;;5.03;4.93;;;;;;;-145.94;26.56;75615.75;5114433;28;20213;-70
2023/06/16 10:12:56;;;;;;;5.83;5.33;;;;;;;-145.94;27.03;75601.50;5114583;28;20188;-70
2023/06/16 10:15:26;;;;;;;4.80;4.70;;;;;;;-145.94;26.36;75595.38;5096668;28;20597;-70
2023/06/16 10:18:03;;;;;;;5.47;5.10;;;;;;;-145.94;25.88;75595.38;5114436;28;20686;-70
2023/06/16 10:20:37;;;;;;;6.07;5.60;;;;;;;-145.94;26.56;75599.44;5115308;28;20550;-70
2023/06/16 10:23:04;;;;;;;5.50;5.43;;;;;;;-145.94;27.42;75593.34;5114728;28;20211;-69
2023/06/16 10:25:31;;;;;;;6.27;5.73;;;;;;;-145.94;26.79;75593.34;5114528;28;20223;-70
2023/06/16 10:28:00;;;;;;;5.20;5.10;;;;;;;-145.94;26.28;75587.22;5114476;28;20234;-70
2023/06/16 10:30:28;;;;;;;6.30;5.80;;;;;;;-145.94;27.08;75575.00;5114351;28;20270;-70
2023/06/16 10:32:58;;;;;;;5.28;5.15;;;;;;;-145.94;27.52;75558.69;5114500;28;20234;-70
2023/06/16 10:35:25;;;;;;;6.30;4.75;;;;;;;-145.94;27.53;75564.78;5114024;28;20235;-69
2023/06/16 10:37:53;;;;;;;5.18;4.93;;;;;;;-145.94;27.69;75550.53;5114097;28;20197;-70
2023/06/16 10:40:21;;;;;;;5.13;4.93;;;;;;;-145.94;26.97;75550.53;5113999;28;20205;-70
2023/06/16 10:42:52;;;;;;;5.00;5.00;;;;;;;-145.94;27.31;75558.69;5114331;28;20207;-70
2023/06/16 10:45:25;;;;;;;5.50;5.40;;;;;;;-145.94;27.24;75558.69;5114299;28;20517;-70
2023/06/16 10:47:57;;;;;;;5.82;5.43;;;;;;;-145.94;26.52;75548.50;5114259;28;20173;-71
2023/06/16 10:50:39;;;;;;;5.15;5.05;;;;;;;-145.94;27.20;75548.50;5114154;28;20213;-70
2023/06/16 10:53:16;;;;;;;5.13;5.13;;;;;;;-145.94;26.47;75526.06;5114256;28;20543;-70
2023/06/16 10:55:45;;;;;;;5.40;5.38;;;;;;;-145.94;27.48;75530.13;5113838;28;20246;-70
2023/06/16 10:58:20;;;;;;;4.90;4.47;;;;;;;-145.94;27.14;75538.28;5113930;28;20254;-69
2023/06/16 11:01:02;;;;;;;4.53;4.28;;;;;;;-145.94;26.90;75526.06;5114022;28;20208;-70
2023/06/16 11:03:35;;;;;;;5.20;5.10;;;;;;;-145.94;26.49;75519.94;5114354;28;20177;-69
2023/06/16 11:06:03;;;;;;;5.45;5.22;;;;;;;-145.94;27.30;75517.91;5114131;28;20261;-69
2023/06/16 11:08:30;;;;;;;5.90;5.60;;;;;;;-145.94;27.33;75509.75;5114228;28;20620;-70
2023/06/16 11:11:07;;;;;;;4.85;4.80;;;;;;;-145.94;27.39;75501.59;5113916;28;20616;-71
2023/06/16 11:13:36;;;;;;;5.25;5.00;;;;;;;-145.94;27.54;75509.75;5114463;28;20182;-71
2023/06/16 11:16:03;;;;;;;5.35;5.15;;;;;;;-145.94;25.66;75528.09;5113935;28;20177;-70
2023/06/16 11:18:35;;;;;;;5.30;5.20;;;;;;;-145.94;26.76;75540.34;5113613;28;20197;-70
2023/06/16 11:21:04;;;;;;;5.50;5.30;;;;;;;-145.94;26.22;75532.19;5114241;28;20584;-70
2023/06/16 11:23:31;;;;;;;4.57;4.57;;;;;;;-145.94;26.22;75538.28;5114040;28;20223;-70